Friedrichshafen Airport EDNY

Flugplatz Daten

Name: Friedrichshafen Airport

Ident: EDNY

Lat: 47,67129898

Long: 9,511489868

Platzhöhe: 1367 ft

IataCode: FDH

City: Friedrichshafen

Metar

2021/10/16 18:20
EDNY 161820Z AUTO 04002KT 9999 // NCD 09/07 Q1020

Taf

2021/10/16 18:27
TAF EDNY 161700Z 1618/1718 06004KT CAVOK
TEMPO 1623/1710 BKN010 PROB40
TEMPO 1702/1709 1500 BR BKN003 PROB30
TEMPO 1703/1708 0700 FG BKN001
Gewünschte Webcam nicht vorhanden? Dann fügen Sie eine hinzu. Sie wird dann so schnell wie möglich freigeschaltet
Url: Title: